createdAt,value
2019-04-22T00:00:55.732Z,39.70
2019-04-22T00:03:33.930Z,39.50
2019-04-22T00:06:14.600Z,39.40
2019-04-22T00:08:49.267Z,39.30
2019-04-22T00:11:26.022Z,39.10
2019-04-22T00:14:01.252Z,39.10
2019-04-22T00:16:27.990Z,39.10
2019-04-22T00:21:25.796Z,39.10
2019-04-22T00:23:54.874Z,39.10
2019-04-22T00:26:23.410Z,39.00
2019-04-22T00:31:25.422Z,38.90
2019-04-22T00:33:52.937Z,39.00
2019-04-22T00:36:23.549Z,39.70
2019-04-22T00:38:52.895Z,39.00
2019-04-22T00:41:29.673Z,39.10
2019-04-22T00:44:00.541Z,39.20
2019-04-22T00:46:25.105Z,39.70
2019-04-22T00:49:32.525Z,39.20
2019-04-22T00:51:28.491Z,39.40
2019-04-22T00:53:56.235Z,39.30
2019-04-22T00:56:26.298Z,39.30
2019-04-22T00:58:53.918Z,39.50
2019-04-22T01:01:29.523Z,39.60
2019-04-22T01:06:27.020Z,39.80
2019-04-22T01:09:02.623Z,40.00
2019-04-22T01:11:29.497Z,40.10
2019-04-22T01:14:00.167Z,40.30
2019-04-22T01:18:53.786Z,40.40
2019-04-22T01:21:36.997Z,40.50
2019-04-22T01:23:57.613Z,40.60
2019-04-22T01:26:25.445Z,40.90
2019-04-22T01:28:55.512Z,40.90
2019-04-22T01:31:17.739Z,40.80
2019-04-22T01:33:48.201Z,41.00
2019-04-22T01:36:33.719Z,41.10
2019-04-22T01:39:03.881Z,41.20
2019-04-22T01:41:41.763Z,41.30
2019-04-22T01:44:14.387Z,41.40
2019-04-22T01:49:08.434Z,41.50
2019-04-22T01:51:56.607Z,41.60
2019-04-22T01:54:15.083Z,41.60
2019-04-22T01:56:41.163Z,41.80
2019-04-22T01:59:03.059Z,41.90
2019-04-22T02:01:43.683Z,42.00
2019-04-22T02:04:10.192Z,42.10
2019-04-22T02:06:42.140Z,42.20
2019-04-22T02:09:17.434Z,42.30
2019-04-22T02:11:46.650Z,42.30
2019-04-22T02:14:11.909Z,42.40
2019-04-22T02:16:41.538Z,42.50
2019-04-22T02:19:19.179Z,42.50
2019-04-22T02:21:44.020Z,42.50
2019-04-22T02:24:12.270Z,42.50
2019-04-22T02:26:40.183Z,42.50
2019-04-22T02:29:15.029Z,42.80
2019-04-22T02:34:32.782Z,42.80
2019-04-22T02:36:49.055Z,43.00
2019-04-22T02:41:44.459Z,43.40
2019-04-22T02:49:25.206Z,43.60
2019-04-22T02:51:40.314Z,43.90
2019-04-22T02:59:22.412Z,44.30
2019-04-22T03:04:18.426Z,44.50
2019-04-22T03:09:30.051Z,44.60
2019-04-22T03:11:58.560Z,44.70
2019-04-22T03:14:33.826Z,44.80
2019-04-22T03:16:50.454Z,45.50
2019-04-22T03:26:59.055Z,45.10
2019-04-22T03:29:17.949Z,45.20
2019-04-22T03:39:37.789Z,45.50
2019-04-22T03:42:06.350Z,45.40
2019-04-22T03:44:31.226Z,45.50
2019-04-22T03:52:04.994Z,46.20
2019-04-22T03:54:39.623Z,45.70
2019-04-22T03:59:32.691Z,45.60
2019-04-22T04:09:34.325Z,45.60
2019-04-22T04:17:04.182Z,45.70
2019-04-22T04:22:18.330Z,45.50
2019-04-22T04:27:20.855Z,45.60
2019-04-22T04:32:25.215Z,45.70
2019-04-22T04:34:54.529Z,45.60
2019-04-22T04:37:18.951Z,46.10
2019-04-22T04:39:44.031Z,45.50
2019-04-22T04:44:59.284Z,45.30
2019-04-22T04:47:25.937Z,45.20
2019-04-22T04:49:48.414Z,45.30
2019-04-22T04:52:16.332Z,45.00
2019-04-22T04:57:19.311Z,45.00
2019-04-22T05:04:59.528Z,44.80
2019-04-22T05:07:19.483Z,44.60
2019-04-22T05:09:32.436Z,44.50
2019-04-22T05:14:44.511Z,44.50
2019-04-22T05:17:16.100Z,44.40
2019-04-22T05:19:57.114Z,44.30
2019-04-22T05:22:21.111Z,44.10
2019-04-22T05:24:56.902Z,43.90
2019-04-22T05:27:19.740Z,43.70
2019-04-22T05:29:46.476Z,43.40
2019-04-22T05:32:13.288Z,43.10
2019-04-22T05:34:42.872Z,42.70
2019-04-22T05:37:12.320Z,42.30
2019-04-22T05:39:35.961Z,42.00
2019-04-22T05:42:08.546Z,41.60
2019-04-22T05:44:47.996Z,40.30
2019-04-22T05:47:12.754Z,40.10
2019-04-22T05:49:35.118Z,39.40
2019-04-22T05:52:11.127Z,39.00
2019-04-22T05:54:38.659Z,38.80
2019-04-22T05:57:14.454Z,38.40
2019-04-22T06:02:16.380Z,38.10
2019-04-22T06:04:46.329Z,37.80
2019-04-22T06:07:06.426Z,37.60
2019-04-22T06:09:43.471Z,37.40
2019-04-22T06:12:04.834Z,37.30
2019-04-22T06:14:37.065Z,37.10
2019-04-22T06:17:20.661Z,37.20
2019-04-22T06:19:54.194Z,36.70
2019-04-22T06:22:34.292Z,37.00
2019-04-22T06:24:49.368Z,37.00
2019-04-22T06:27:26.736Z,36.80
2019-04-22T06:29:49.499Z,36.60
2019-04-22T06:32:31.479Z,36.50
2019-04-22T06:34:48.769Z,36.30
2019-04-22T06:39:50.612Z,35.30
2019-04-22T06:42:21.942Z,34.90
2019-04-22T06:44:51.577Z,35.00
2019-04-22T06:47:40.125Z,34.90
2019-04-22T06:50:07.531Z,34.70
2019-04-22T06:54:54.490Z,34.50
2019-04-22T06:57:19.654Z,34.20
2019-04-22T06:59:56.751Z,34.00
2019-04-22T07:02:23.876Z,34.10
2019-04-22T07:04:56.512Z,33.40
2019-04-22T07:07:40.317Z,33.20
2019-04-22T07:09:54.459Z,33.10
2019-04-22T07:12:24.455Z,31.00
2019-04-22T07:14:53.570Z,30.70
2019-04-22T07:17:45.773Z,31.30
2019-04-22T07:19:53.122Z,31.00
2019-04-22T07:22:26.087Z,30.40
2019-04-22T07:24:53.854Z,30.20
2019-04-22T07:27:25.349Z,29.70
2019-04-22T07:30:03.552Z,29.30
2019-04-22T07:32:40.108Z,28.20
2019-04-22T07:37:32.962Z,27.60
2019-04-22T07:39:50.343Z,28.10
2019-04-22T07:44:55.120Z,27.20
2019-04-22T07:49:59.456Z,27.20
2019-04-22T07:52:27.585Z,27.40
2019-04-22T07:54:59.628Z,27.40
2019-04-22T07:57:32.761Z,26.50
2019-04-22T08:00:06.882Z,27.00
2019-04-22T08:02:31.807Z,26.90
2019-04-22T08:05:05.424Z,26.20
2019-04-22T08:07:30.390Z,26.50
2019-04-22T08:12:36.130Z,25.60
2019-04-22T08:14:59.431Z,24.70
2019-04-22T08:20:02.823Z,25.00
2019-04-22T08:22:27.312Z,24.90
2019-04-22T08:25:01.299Z,23.90
2019-04-22T08:27:30.205Z,23.60
2019-04-22T08:30:07.261Z,23.30
2019-04-22T08:32:36.103Z,23.00
2019-04-22T08:34:56.460Z,23.20
2019-04-22T08:37:47.558Z,22.80
2019-04-22T08:40:09.578Z,22.30
2019-04-22T08:47:31.183Z,22.90
2019-04-22T08:50:18.501Z,23.40
2019-04-22T08:52:33.779Z,23.00
2019-04-22T08:55:08.114Z,22.60
2019-04-22T09:00:03.992Z,21.80
2019-04-22T09:02:32.687Z,21.90
2019-04-22T09:05:00.963Z,22.30
2019-04-22T09:07:31.770Z,22.00
2019-04-22T09:10:03.414Z,21.20
2019-04-22T09:12:46.889Z,21.70
2019-04-22T09:14:57.215Z,21.30
2019-04-22T09:17:36.306Z,20.40
2019-04-22T09:20:07.385Z,20.20
2019-04-22T09:22:36.270Z,18.60
2019-04-22T09:25:03.222Z,18.60
2019-04-22T09:27:39.976Z,18.10
2019-04-22T09:30:10.479Z,18.30
2019-04-22T09:35:02.530Z,18.20
2019-04-22T09:40:14.011Z,17.70
2019-04-22T09:42:42.445Z,17.80
2019-04-22T09:45:06.044Z,18.40
2019-04-22T09:47:46.855Z,18.10
2019-04-22T09:50:09.733Z,17.80
2019-04-22T09:52:37.593Z,18.10
2019-04-22T09:57:52.982Z,17.70
2019-04-22T10:02:41.256Z,17.70
2019-04-22T10:05:11.435Z,18.00
2019-04-22T10:07:43.269Z,17.50
2019-04-22T10:10:15.020Z,17.30
2019-04-22T10:12:44.935Z,17.00
2019-04-22T10:15:05.213Z,16.90
2019-04-22T10:17:36.648Z,16.10
2019-04-22T10:20:29.061Z,16.60
2019-04-22T10:22:46.131Z,16.80
2019-04-22T10:25:10.781Z,16.70
2019-04-22T10:27:39.830Z,16.70
2019-04-22T10:32:35.381Z,16.50
2019-04-22T10:34:58.849Z,16.00
2019-04-22T10:37:23.806Z,16.70
2019-04-22T10:39:56.586Z,16.60
2019-04-22T10:42:23.006Z,16.60
2019-04-22T10:44:53.419Z,15.50
2019-04-22T10:47:22.255Z,15.80
2019-04-22T10:49:52.101Z,15.70
2019-04-22T10:52:21.596Z,15.50
2019-04-22T10:54:51.540Z,15.10
2019-04-22T10:57:20.195Z,15.10
2019-04-22T10:59:48.616Z,15.30
2019-04-22T11:02:17.329Z,15.20
2019-04-22T11:04:46.081Z,15.20
2019-04-22T11:07:15.369Z,15.10
2019-04-22T11:09:52.068Z,15.30
2019-04-22T11:12:19.207Z,15.00
2019-04-22T11:14:47.561Z,15.20
2019-04-22T11:17:17.587Z,15.50
2019-04-22T11:19:46.191Z,15.40
2019-04-22T11:22:20.671Z,15.30
2019-04-22T11:24:44.802Z,14.80
2019-04-22T11:27:14.744Z,15.10
2019-04-22T11:29:43.729Z,14.90
2019-04-22T11:32:12.935Z,14.70
2019-04-22T11:34:42.709Z,14.80
2019-04-22T11:37:12.307Z,14.90
2019-04-22T11:39:40.819Z,15.10
2019-04-22T11:42:10.007Z,15.10
2019-04-22T11:44:39.144Z,15.20
2019-04-22T11:47:07.691Z,14.80
2019-04-22T11:49:36.251Z,15.00
2019-04-22T11:52:06.990Z,15.10
2019-04-22T11:54:34.946Z,15.10
2019-04-22T11:57:03.351Z,15.00
2019-04-22T11:59:32.948Z,15.20
2019-04-22T12:02:02.556Z,15.20
2019-04-22T12:04:32.078Z,14.90
2019-04-22T12:07:02.086Z,15.20
2019-04-22T12:09:30.784Z,15.40
2019-04-22T12:11:59.974Z,15.20
2019-04-22T12:14:30.047Z,15.30
2019-04-22T12:16:59.442Z,15.40
2019-04-22T12:19:29.425Z,15.40
2019-04-22T12:21:59.120Z,15.30
2019-04-22T12:24:28.221Z,15.50
2019-04-22T12:26:58.103Z,15.70
2019-04-22T12:29:26.910Z,15.80
2019-04-22T12:31:55.660Z,15.70
2019-04-22T12:34:25.651Z,15.90
2019-04-22T12:36:54.488Z,16.60
2019-04-22T12:39:23.270Z,16.00
2019-04-22T12:41:52.147Z,16.20
2019-04-22T12:44:21.879Z,16.30
2019-04-22T12:46:50.580Z,16.40
2019-04-22T12:49:20.260Z,16.20
2019-04-22T12:51:49.234Z,16.20
2019-04-22T12:54:19.231Z,16.20
2019-04-22T12:56:48.026Z,16.10
2019-04-22T12:59:17.308Z,15.90
2019-04-22T13:01:46.873Z,15.90
2019-04-22T13:04:18.027Z,16.10
2019-04-22T13:06:46.120Z,16.10
2019-04-22T13:09:17.529Z,16.20
2019-04-22T13:11:45.960Z,16.00
2019-04-22T13:14:14.950Z,16.20
2019-04-22T13:16:44.641Z,16.30
2019-04-22T13:19:17.051Z,15.80
2019-04-22T13:21:44.744Z,16.30
2019-04-22T13:24:13.487Z,16.70
2019-04-22T13:26:43.050Z,17.20
2019-04-22T13:29:12.785Z,16.60
2019-04-22T13:31:42.524Z,16.50
2019-04-22T13:34:21.623Z,16.60
2019-04-22T13:36:43.604Z,16.80
2019-04-22T13:39:11.395Z,16.80
2019-04-22T13:41:46.348Z,16.50
2019-04-22T13:44:09.968Z,16.50
2019-04-22T13:46:38.779Z,16.60
2019-04-22T13:49:47.796Z,16.60
2019-04-22T13:52:15.553Z,16.60
2019-04-22T13:56:56.972Z,16.90
2019-04-22T13:59:18.286Z,17.00
2019-04-22T14:01:40.964Z,17.20
2019-04-22T14:04:25.707Z,17.10
2019-04-22T14:06:54.692Z,17.10
2019-04-22T14:09:24.451Z,16.90
2019-04-22T14:11:58.548Z,16.30
2019-04-22T14:14:23.999Z,16.40
2019-04-22T14:16:53.229Z,16.40
2019-04-22T14:19:21.908Z,16.60
2019-04-22T14:21:51.543Z,16.80
2019-04-22T14:24:21.510Z,16.80
2019-04-22T14:26:58.854Z,16.90
2019-04-22T14:29:21.748Z,16.90
2019-04-22T14:32:02.805Z,17.00
2019-04-22T14:34:20.855Z,16.90
2019-04-22T14:36:49.394Z,16.70
2019-04-22T14:39:18.051Z,16.50
2019-04-22T14:42:12.358Z,16.80
2019-04-22T14:45:14.963Z,17.40
2019-04-22T14:47:15.769Z,17.20
2019-04-22T14:49:43.537Z,17.50
2019-04-22T14:52:13.033Z,18.20
2019-04-22T14:54:33.830Z,17.70
2019-04-22T14:56:48.500Z,17.70
2019-04-22T14:59:17.057Z,17.80
2019-04-22T15:01:45.685Z,17.90
2019-04-22T15:04:15.191Z,18.00
2019-04-22T15:06:47.090Z,17.80
2019-04-22T15:09:14.403Z,17.50
2019-04-22T15:11:53.003Z,17.50
2019-04-22T15:14:13.030Z,17.40
2019-04-22T15:16:46.946Z,17.80
2019-04-22T15:19:25.815Z,17.10
2019-04-22T15:21:54.659Z,17.20
2019-04-22T15:24:25.094Z,17.50
2019-04-22T15:26:56.368Z,17.80
2019-04-22T15:29:25.372Z,17.90
2019-04-22T15:31:55.290Z,18.10
2019-04-22T15:34:24.991Z,18.30
2019-04-22T15:36:54.012Z,18.40
2019-04-22T15:39:23.170Z,18.50
2019-04-22T15:42:01.495Z,18.60
2019-04-22T15:44:22.005Z,18.60
2019-04-22T15:46:50.998Z,18.70
2019-04-22T15:49:20.178Z,18.70
2019-04-22T15:51:48.915Z,18.90
2019-04-22T15:54:17.434Z,18.80
2019-04-22T15:56:46.591Z,18.90
2019-04-22T15:59:31.179Z,18.80
2019-04-22T16:01:46.786Z,18.80
2019-04-22T16:04:16.860Z,18.90
2019-04-22T16:06:45.403Z,18.80
2019-04-22T16:09:15.044Z,18.90
2019-04-22T16:11:43.730Z,19.00
2019-04-22T16:14:17.725Z,19.00
2019-04-22T16:16:43.106Z,19.10
2019-04-22T16:19:12.211Z,19.10
2019-04-22T16:21:49.051Z,19.20
2019-04-22T16:24:16.007Z,19.30
2019-04-22T16:26:46.595Z,19.40
2019-04-22T16:29:19.188Z,19.30
2019-04-22T16:31:47.731Z,19.40
2019-04-22T16:34:17.354Z,19.50
2019-04-22T16:36:47.107Z,19.50
2019-04-22T16:39:15.834Z,19.60
2019-04-22T16:41:44.619Z,19.70
2019-04-22T16:44:14.407Z,19.80
2019-04-22T16:46:43.662Z,19.90
2019-04-22T16:49:12.142Z,19.90
2019-04-22T16:51:40.566Z,19.90
2019-04-22T16:54:09.213Z,20.00
2019-04-22T16:56:37.789Z,20.00
2019-04-22T16:59:06.745Z,20.10
2019-04-22T17:01:43.176Z,20.20
2019-04-22T17:04:25.024Z,20.40
2019-04-22T17:06:55.415Z,20.50
2019-04-22T17:09:23.941Z,21.10
2019-04-22T17:11:53.891Z,20.80
2019-04-22T17:14:29.675Z,20.90
2019-04-22T17:16:52.907Z,21.00
2019-04-22T17:19:21.718Z,21.10
2019-04-22T17:21:50.219Z,21.10
2019-04-22T17:24:19.515Z,21.80
2019-04-22T17:26:48.397Z,21.40
2019-04-22T17:29:16.993Z,21.50
2019-04-22T17:31:52.589Z,21.50
2019-04-22T17:34:15.914Z,21.60
2019-04-22T17:36:44.475Z,21.80
2019-04-22T17:39:30.640Z,21.80
2019-04-22T17:42:06.944Z,21.90
2019-04-22T17:45:01.054Z,22.20
2019-04-22T17:47:16.719Z,22.30
2019-04-22T17:49:55.267Z,22.30
2019-04-22T17:52:25.022Z,22.40
2019-04-22T17:55:04.500Z,22.50
2019-04-22T17:57:24.104Z,22.80
2019-04-22T17:59:50.574Z,22.70
2019-04-22T18:02:22.357Z,22.70
2019-04-22T18:04:43.510Z,22.70
2019-04-22T18:07:35.820Z,22.90
2019-04-22T18:12:34.187Z,23.00
2019-04-22T18:15:01.894Z,23.00
2019-04-22T18:17:37.217Z,23.00
2019-04-22T18:19:54.677Z,23.20
2019-04-22T18:22:21.872Z,23.20
2019-04-22T18:24:55.746Z,23.20
2019-04-22T18:27:38.898Z,23.40
2019-04-22T18:29:55.830Z,23.40
2019-04-22T18:32:17.636Z,23.50
2019-04-22T18:34:50.382Z,23.50
2019-04-22T18:37:19.864Z,23.50
2019-04-22T18:39:58.387Z,23.60
2019-04-22T18:42:23.911Z,23.60
2019-04-22T18:45:09.887Z,23.70
2019-04-22T18:47:25.564Z,23.80
2019-04-22T18:49:56.628Z,23.80
2019-04-22T18:52:38.081Z,23.80
2019-04-22T18:55:03.222Z,23.90
2019-04-22T18:57:41.695Z,23.90
2019-04-22T19:00:02.685Z,24.10
2019-04-22T19:02:34.080Z,24.20
2019-04-22T19:05:14.889Z,24.30
2019-04-22T19:08:05.580Z,24.30
2019-04-22T19:10:37.760Z,24.30
2019-04-22T19:13:21.820Z,24.50
2019-04-22T19:15:35.159Z,24.40
2019-04-22T19:18:01.852Z,24.40
2019-04-22T19:20:34.374Z,24.50
2019-04-22T19:23:06.906Z,24.50
2019-04-22T19:25:29.038Z,24.50
2019-04-22T19:28:12.306Z,24.60
2019-04-22T19:30:39.551Z,25.10
2019-04-22T19:33:11.243Z,24.70
2019-04-22T19:35:29.947Z,24.60
2019-04-22T19:38:00.110Z,24.60
2019-04-22T19:40:52.085Z,24.60
2019-04-22T19:43:19.841Z,24.70
2019-04-22T19:45:43.032Z,24.60
2019-04-22T19:48:21.928Z,24.70
2019-04-22T19:50:52.435Z,24.80
2019-04-22T19:53:25.856Z,24.70
2019-04-22T19:55:46.433Z,24.70
2019-04-22T19:58:27.787Z,24.80
2019-04-22T20:01:08.891Z,24.80
2019-04-22T20:03:49.740Z,24.80
2019-04-22T20:06:27.165Z,25.40
2019-04-22T20:08:59.640Z,24.80
2019-04-22T20:11:31.269Z,24.90
2019-04-22T20:14:02.556Z,24.80
2019-04-22T20:16:27.533Z,24.80
2019-04-22T20:19:04.785Z,25.50
2019-04-22T20:21:35.358Z,25.00
2019-04-22T20:23:55.156Z,24.90
2019-04-22T20:26:40.802Z,24.90
2019-04-22T20:29:04.770Z,25.00
2019-04-22T20:31:37.892Z,25.00
2019-04-22T20:34:13.070Z,25.00
2019-04-22T20:36:53.606Z,25.00
2019-04-22T20:39:04.936Z,25.10
2019-04-22T20:41:31.739Z,25.20
2019-04-22T20:44:11.330Z,25.30
2019-04-22T20:46:36.308Z,25.40
2019-04-22T20:49:04.975Z,25.60
2019-04-22T20:51:48.795Z,25.70
2019-04-22T20:54:08.833Z,25.70
2019-04-22T20:56:33.651Z,25.70
2019-04-22T20:59:08.681Z,25.80
2019-04-22T21:01:39.747Z,25.90
2019-04-22T21:03:57.612Z,26.10
2019-04-22T21:06:36.877Z,26.20
2019-04-22T21:09:12.022Z,26.30
2019-04-22T21:11:38.430Z,26.40
2019-04-22T21:14:05.825Z,26.50
2019-04-22T21:16:46.379Z,26.50
2019-04-22T21:19:21.699Z,26.40
2019-04-22T21:21:46.924Z,26.40
2019-04-22T21:24:02.898Z,26.70
2019-04-22T21:26:39.927Z,26.60
2019-04-22T21:29:09.977Z,27.60
2019-04-22T21:31:49.315Z,26.70
2019-04-22T21:34:13.102Z,27.00
2019-04-22T21:36:52.017Z,27.10
2019-04-22T21:39:12.483Z,27.80
2019-04-22T21:41:39.247Z,27.40
2019-04-22T21:44:14.354Z,27.40
2019-04-22T21:46:54.258Z,27.50
2019-04-22T21:49:18.851Z,27.50
2019-04-22T21:51:49.748Z,27.60
2019-04-22T21:54:34.419Z,27.80
2019-04-22T21:57:01.701Z,27.90
2019-04-22T21:59:17.811Z,28.00
2019-04-22T22:02:00.408Z,28.10
2019-04-22T22:04:22.008Z,28.40
2019-04-22T22:06:41.461Z,28.50
2019-04-22T22:09:20.378Z,28.50
2019-04-22T22:11:51.087Z,28.70
2019-04-22T22:14:21.353Z,28.60
2019-04-22T22:16:42.934Z,28.90
2019-04-22T22:19:22.456Z,29.00
2019-04-22T22:21:58.393Z,29.40
2019-04-22T22:24:22.603Z,29.10
2019-04-22T22:27:12.710Z,29.30
2019-04-22T22:29:37.976Z,29.30
2019-04-22T22:31:57.806Z,29.50
2019-04-22T22:34:24.943Z,29.70
2019-04-22T22:36:46.549Z,29.70
2019-04-22T22:39:17.478Z,29.90
2019-04-22T22:41:34.163Z,30.00
2019-04-22T22:44:11.410Z,30.30
2019-04-22T22:47:15.591Z,30.20
2019-04-22T22:49:48.276Z,30.40
2019-04-22T22:52:45.304Z,30.50
2019-04-22T22:54:53.794Z,30.70
2019-04-22T22:57:27.654Z,30.90
2019-04-22T22:59:50.183Z,30.90
2019-04-22T23:02:22.455Z,31.20
2019-04-22T23:04:51.233Z,31.40
2019-04-22T23:07:28.999Z,31.20
2019-04-22T23:09:54.419Z,31.40
2019-04-22T23:14:50.124Z,31.80
2019-04-22T23:17:10.117Z,31.40
2019-04-22T23:19:38.070Z,31.80
2019-04-22T23:22:16.576Z,32.00
2019-04-22T23:24:55.586Z,32.10
2019-04-22T23:27:29.332Z,32.30
2019-04-22T23:29:57.234Z,32.50
2019-04-22T23:32:28.202Z,32.30
2019-04-22T23:35:10.078Z,32.60
2019-04-22T23:37:28.947Z,32.50
2019-04-22T23:40:17.445Z,33.30
2019-04-22T23:42:41.407Z,32.70
2019-04-22T23:45:10.784Z,32.60
2019-04-22T23:47:31.011Z,32.60
2019-04-22T23:50:09.609Z,33.00
2019-04-22T23:52:48.214Z,32.80
2019-04-22T23:55:14.709Z,33.00
2019-04-22T23:57:48.830Z,32.80
